Stockville, Nebraska
Current Conditions -  °F | °C
As of 3:53 AM on Saturday 25 Oct 2014 (Local Time) from KMCK Reporting Station
Clear Clear  
Wind Chill: 43°   Ceiling: Unl
Heat Index: 43°   Visibility: 10mi
Dew Point: 35°   Wind: 0mph
Humidity: 74%   Direction: NA
Pressure: 30.07"   Gusts: NA
Location:  40.53°N, 100.38°W
Report Text: KMCK 250853Z AUTO 00000KT 10SM CLR 06/02 A3007 RMK AO2 SLP167 T00610017 58001
Loading
Personal Weather Stations






























Interactive Weather Map
Tropical Storm Tracking
New forecast layout! Learn more

10-Day Weather Forecast

Advertisements
Track Severe Weather on mobile